sensor_id;sensor_type;location;lat;lon;timestamp;temperature;humidity
4757;DHT22;2392;52.578;13.426;2023-06-01T00:01:53;17.50;80.20
4757;DHT22;2392;52.578;13.426;2023-06-01T00:04:22;17.40;80.40
4757;DHT22;2392;52.578;13.426;2023-06-01T00:06:49;17.40;80.80
4757;DHT22;2392;52.578;13.426;2023-06-01T00:09:16;17.40;80.90
4757;DHT22;2392;52.578;13.426;2023-06-01T00:11:43;17.30;81.00
4757;DHT22;2392;52.578;13.426;2023-06-01T00:14:10;17.30;81.30
4757;DHT22;2392;52.578;13.426;2023-06-01T00:16:37;17.30;81.60
4757;DHT22;2392;52.578;13.426;2023-06-01T00:19:04;17.20;81.80
4757;DHT22;2392;52.578;13.426;2023-06-01T00:21:33;17.20;81.90
4757;DHT22;2392;52.578;13.426;2023-06-01T00:24:01;17.20;82.30
4757;DHT22;2392;52.578;13.426;2023-06-01T00:26:28;17.10;82.50
4757;DHT22;2392;52.578;13.426;2023-06-01T00:28:58;17.10;82.80
4757;DHT22;2392;52.578;13.426;2023-06-01T00:31:25;17.10;83.00
4757;DHT22;2392;52.578;13.426;2023-06-01T00:33:53;17.10;83.30
4757;DHT22;2392;52.578;13.426;2023-06-01T00:36:20;17.00;83.60
4757;DHT22;2392;52.578;13.426;2023-06-01T00:38:49;17.00;84.00
4757;DHT22;2392;52.578;13.426;2023-06-01T00:41:16;16.90;84.20
4757;DHT22;2392;52.578;13.426;2023-06-01T00:43:43;16.90;84.30
4757;DHT22;2392;52.578;13.426;2023-06-01T00:46:10;16.90;84.70
4757;DHT22;2392;52.578;13.426;2023-06-01T00:48:39;16.90;84.80
4757;DHT22;2392;52.578;13.426;2023-06-01T00:51:06;16.80;85.10
4757;DHT22;2392;52.578;13.426;2023-06-01T00:53:34;16.80;85.20
4757;DHT22;2392;52.578;13.426;2023-06-01T00:56:03;16.70;85.40
4757;DHT22;2392;52.578;13.426;2023-06-01T00:58:30;16.70;85.70
4757;DHT22;2392;52.578;13.426;2023-06-01T01:00:58;16.60;85.90
4757;DHT22;2392;52.578;13.426;2023-06-01T01:03:27;16.60;86.40
4757;DHT22;2392;52.578;13.426;2023-06-01T01:06:07;16.60;86.40
4757;DHT22;2392;52.578;13.426;2023-06-01T01:08:44;16.60;86.50
4757;DHT22;2392;52.578;13.426;2023-06-01T01:11:19;16.60;86.70
4757;DHT22;2392;52.578;13.426;2023-06-01T01:13:52;16.60;87.10
4757;DHT22;2392;52.578;13.426;2023-06-01T01:16:27;16.50;87.40
4757;DHT22;2392;52.578;13.426;2023-06-01T01:19:00;16.40;87.60
4757;DHT22;2392;52.578;13.426;2023-06-01T01:21:32;16.40;88.10
4757;DHT22;2392;52.578;13.426;2023-06-01T01:24:23;16.30;88.80
4757;DHT22;2392;52.578;13.426;2023-06-01T01:27:05;16.30;89.20
4757;DHT22;2392;52.578;13.426;2023-06-01T01:29:40;16.20;89.40
4757;DHT22;2392;52.578;13.426;2023-06-01T01:32:08;16.20;89.80
4757;DHT22;2392;52.578;13.426;2023-06-01T01:34:37;16.20;90.10
4757;DHT22;2392;52.578;13.426;2023-06-01T01:37:07;16.10;90.10
4757;DHT22;2392;52.578;13.426;2023-06-01T01:39:34;16.10;90.20
4757;DHT22;2392;52.578;13.426;2023-06-01T01:42:01;16.10;90.40
4757;DHT22;2392;52.578;13.426;2023-06-01T01:44:28;16.10;90.70
4757;DHT22;2392;52.578;13.426;2023-06-01T01:47:03;16.10;90.70
4757;DHT22;2392;52.578;13.426;2023-06-01T01:49:40;16.10;90.90
4757;DHT22;2392;52.578;13.426;2023-06-01T01:52:14;16.00;91.40
4757;DHT22;2392;52.578;13.426;2023-06-01T01:54:43;16.00;91.30
4757;DHT22;2392;52.578;13.426;2023-06-01T01:57:12;15.90;91.60
4757;DHT22;2392;52.578;13.426;2023-06-01T01:59:40;15.90;91.80
4757;DHT22;2392;52.578;13.426;2023-06-01T02:02:10;15.90;91.90
4757;DHT22;2392;52.578;13.426;2023-06-01T02:04:38;15.80;92.10
4757;DHT22;2392;52.578;13.426;2023-06-01T02:07:07;15.80;92.30
4757;DHT22;2392;52.578;13.426;2023-06-01T02:09:34;15.80;92.50
4757;DHT22;2392;52.578;13.426;2023-06-01T02:12:03;15.70;92.60
4757;DHT22;2392;52.578;13.426;2023-06-01T02:14:32;15.70;92.90
4757;DHT22;2392;52.578;13.426;2023-06-01T02:17:00;15.70;93.00
4757;DHT22;2392;52.578;13.426;2023-06-01T02:19:28;15.70;93.20
4757;DHT22;2392;52.578;13.426;2023-06-01T02:21:56;15.60;93.30
4757;DHT22;2392;52.578;13.426;2023-06-01T02:24:23;15.60;93.40
4757;DHT22;2392;52.578;13.426;2023-06-01T02:26:50;15.60;93.60
4757;DHT22;2392;52.578;13.426;2023-06-01T02:29:19;15.60;93.70
4757;DHT22;2392;52.578;13.426;2023-06-01T02:31:48;15.50;93.90
4757;DHT22;2392;52.578;13.426;2023-06-01T02:34:15;15.50;94.10
4757;DHT22;2392;52.578;13.426;2023-06-01T02:36:44;15.50;94.20
4757;DHT22;2392;52.578;13.426;2023-06-01T02:39:13;15.50;94.30
4757;DHT22;2392;52.578;13.426;2023-06-01T02:41:40;15.40;94.40
4757;DHT22;2392;52.578;13.426;2023-06-01T02:44:07;15.40;94.50
4757;DHT22;2392;52.578;13.426;2023-06-01T02:46:34;15.40;94.60
4757;DHT22;2392;52.578;13.426;2023-06-01T02:49:01;15.30;94.90
4757;DHT22;2392;52.578;13.426;2023-06-01T02:51:29;15.30;95.20
4757;DHT22;2392;52.578;13.426;2023-06-01T02:54:09;15.20;95.50
4757;DHT22;2392;52.578;13.426;2023-06-01T02:56:36;15.10;95.70
4757;DHT22;2392;52.578;13.426;2023-06-01T02:59:20;15.10;96.00
4757;DHT22;2392;52.578;13.426;2023-06-01T03:01:54;15.10;96.20
4757;DHT22;2392;52.578;13.426;2023-06-01T03:04:21;15.10;96.50
4757;DHT22;2392;52.578;13.426;2023-06-01T03:06:49;15.00;96.80
4757;DHT22;2392;52.578;13.426;2023-06-01T03:09:34;15.00;96.90
4757;DHT22;2392;52.578;13.426;2023-06-01T03:12:26;14.90;97.20
4757;DHT22;2392;52.578;13.426;2023-06-01T03:14:53;14.90;97.60
4757;DHT22;2392;52.578;13.426;2023-06-01T03:17:20;14.80;97.90
4757;DHT22;2392;52.578;13.426;2023-06-01T03:19:47;14.80;98.20
4757;DHT22;2392;52.578;13.426;2023-06-01T03:22:21;14.70;98.60
4757;DHT22;2392;52.578;13.426;2023-06-01T03:24:50;14.60;99.10
4757;DHT22;2392;52.578;13.426;2023-06-01T03:27:23;14.60;99.50
4757;DHT22;2392;52.578;13.426;2023-06-01T03:29:50;14.50;99.90
4757;DHT22;2392;52.578;13.426;2023-06-01T03:32:18;14.50;99.90
4757;DHT22;2392;52.578;13.426;2023-06-01T03:34:45;14.40;99.90
4757;DHT22;2392;52.578;13.426;2023-06-01T03:37:12;14.40;99.90
4757;DHT22;2392;52.578;13.426;2023-06-01T03:39:39;14.30;99.90
4757;DHT22;2392;52.578;13.426;2023-06-01T03:42:11;14.30;99.90
4757;DHT22;2392;52.578;13.426;2023-06-01T03:44:39;14.20;99.90
4757;DHT22;2392;52.578;13.426;2023-06-01T03:47:07;14.20;99.90
4757;DHT22;2392;52.578;13.426;2023-06-01T03:49:34;14.20;99.90
4757;DHT22;2392;52.578;13.426;2023-06-01T03:52:05;14.00;99.90
4757;DHT22;2392;52.578;13.426;2023-06-01T03:54:33;14.00;99.90
4757;DHT22;2392;52.578;13.426;2023-06-01T03:57:00;14.00;99.90
4757;DHT22;2392;52.578;13.426;2023-06-01T03:59:29;13.90;99.90
4757;DHT22;2392;52.578;13.426;2023-06-01T04:01:56;13.90;99.90
4757;DHT22;2392;52.578;13.426;2023-06-01T04:04:27;13.80;99.90
4757;DHT22;2392;52.578;13.426;2023-06-01T04:06:55;13.70;99.90
4757;DHT22;2392;52.578;13.426;2023-06-01T04:09:28;13.70;99.90
4757;DHT22;2392;52.578;13.426;2023-06-01T04:11:55;13.60;99.90
4757;DHT22;2392;52.578;13.426;2023-06-01T04:14:23;13.50;99.90
4757;DHT22;2392;52.578;13.426;2023-06-01T04:16:51;13.50;99.90
4757;DHT22;2392;52.578;13.426;2023-06-01T04:19:18;13.60;99.90
4757;DHT22;2392;52.578;13.426;2023-06-01T04:21:47;13.50;99.90
4757;DHT22;2392;52.578;13.426;2023-06-01T04:24:16;13.50;99.90
4757;DHT22;2392;52.578;13.426;2023-06-01T04:26:43;13.50;99.90
4757;DHT22;2392;52.578;13.426;2023-06-01T04:29:11;13.40;99.90
4757;DHT22;2392;52.578;13.426;2023-06-01T04:31:39;13.50;99.90
4757;DHT22;2392;52.578;13.426;2023-06-01T04:34:08;13.50;99.90
4757;DHT22;2392;52.578;13.426;2023-06-01T04:36:35;13.40;99.90
4757;DHT22;2392;52.578;13.426;2023-06-01T04:39:05;13.40;99.90
4757;DHT22;2392;52.578;13.426;2023-06-01T04:41:33;13.40;99.90
4757;DHT22;2392;52.578;13.426;2023-06-01T04:44:02;13.40;99.90
4757;DHT22;2392;52.578;13.426;2023-06-01T04:46:31;13.30;99.90
4757;DHT22;2392;52.578;13.426;2023-06-01T04:49:00;13.30;99.90
4757;DHT22;2392;52.578;13.426;2023-06-01T04:51:30;13.30;99.90
4757;DHT22;2392;52.578;13.426;2023-06-01T04:53:59;13.30;99.90
4757;DHT22;2392;52.578;13.426;2023-06-01T04:56:27;13.30;99.90
4757;DHT22;2392;52.578;13.426;2023-06-01T04:58:56;13.30;99.90
4757;DHT22;2392;52.578;13.426;2023-06-01T05:01:25;13.30;99.90
4757;DHT22;2392;52.578;13.426;2023-06-01T05:03:55;13.30;99.90
4757;DHT22;2392;52.578;13.426;2023-06-01T05:06:23;13.20;99.90
4757;DHT22;2392;52.578;13.426;2023-06-01T05:08:52;13.20;99.90
4757;DHT22;2392;52.578;13.426;2023-06-01T05:11:20;13.10;99.90
4757;DHT22;2392;52.578;13.426;2023-06-01T05:13:47;13.10;99.90
4757;DHT22;2392;52.578;13.426;2023-06-01T05:16:17;13.00;99.90
4757;DHT22;2392;52.578;13.426;2023-06-01T05:18:44;13.00;99.90
4757;DHT22;2392;52.578;13.426;2023-06-01T05:21:11;12.90;99.90
4757;DHT22;2392;52.578;13.426;2023-06-01T05:23:37;12.90;99.90
4757;DHT22;2392;52.578;13.426;2023-06-01T05:26:06;12.80;99.90
4757;DHT22;2392;52.578;13.426;2023-06-01T05:28:34;12.80;99.90
4757;DHT22;2392;52.578;13.426;2023-06-01T05:31:04;12.70;99.90
4757;DHT22;2392;52.578;13.426;2023-06-01T05:33:36;12.80;99.90
4757;DHT22;2392;52.578;13.426;2023-06-01T05:36:03;12.80;99.90
4757;DHT22;2392;52.578;13.426;2023-06-01T05:38:30;12.80;99.90
4757;DHT22;2392;52.578;13.426;2023-06-01T05:40:58;12.80;99.90
4757;DHT22;2392;52.578;13.426;2023-06-01T05:43:26;12.90;99.90
4757;DHT22;2392;52.578;13.426;2023-06-01T05:45:53;12.90;99.90
4757;DHT22;2392;52.578;13.426;2023-06-01T05:48:21;12.90;99.90
4757;DHT22;2392;52.578;13.426;2023-06-01T05:50:51;12.90;99.90
4757;DHT22;2392;52.578;13.426;2023-06-01T05:53:18;13.00;99.90
4757;DHT22;2392;52.578;13.426;2023-06-01T05:55:48;13.00;99.90
4757;DHT22;2392;52.578;13.426;2023-06-01T05:58:15;13.00;99.90
4757;DHT22;2392;52.578;13.426;2023-06-01T06:00:44;13.10;99.90
4757;DHT22;2392;52.578;13.426;2023-06-01T06:03:11;13.20;99.90
4757;DHT22;2392;52.578;13.426;2023-06-01T06:05:38;13.20;99.90
4757;DHT22;2392;52.578;13.426;2023-06-01T06:08:06;13.30;99.90
4757;DHT22;2392;52.578;13.426;2023-06-01T06:10:33;13.30;99.90
4757;DHT22;2392;52.578;13.426;2023-06-01T06:13:00;13.40;99.90
4757;DHT22;2392;52.578;13.426;2023-06-01T06:15:27;13.40;99.90
4757;DHT22;2392;52.578;13.426;2023-06-01T06:17:56;13.40;99.90
4757;DHT22;2392;52.578;13.426;2023-06-01T06:20:23;13.50;99.90
4757;DHT22;2392;52.578;13.426;2023-06-01T06:22:50;13.50;99.90
4757;DHT22;2392;52.578;13.426;2023-06-01T06:25:18;13.50;99.90
4757;DHT22;2392;52.578;13.426;2023-06-01T06:27:46;13.50;99.90
4757;DHT22;2392;52.578;13.426;2023-06-01T06:30:13;13.60;99.90
4757;DHT22;2392;52.578;13.426;2023-06-01T06:32:40;13.60;99.90
4757;DHT22;2392;52.578;13.426;2023-06-01T06:35:09;13.60;99.90
4757;DHT22;2392;52.578;13.426;2023-06-01T06:37:39;13.70;99.90
4757;DHT22;2392;52.578;13.426;2023-06-01T06:40:07;13.70;99.90
4757;DHT22;2392;52.578;13.426;2023-06-01T06:42:34;13.70;99.90
4757;DHT22;2392;52.578;13.426;2023-06-01T06:45:02;13.80;99.90
4757;DHT22;2392;52.578;13.426;2023-06-01T06:47:30;13.90;99.90
4757;DHT22;2392;52.578;13.426;2023-06-01T06:49:57;13.90;99.90
4757;DHT22;2392;52.578;13.426;2023-06-01T06:52:26;14.00;99.90
4757;DHT22;2392;52.578;13.426;2023-06-01T06:54:52;14.00;99.90
4757;DHT22;2392;52.578;13.426;2023-06-01T06:57:19;14.10;99.90
4757;DHT22;2392;52.578;13.426;2023-06-01T06:59:47;14.10;99.90
4757;DHT22;2392;52.578;13.426;2023-06-01T07:02:13;14.10;99.90
4757;DHT22;2392;52.578;13.426;2023-06-01T07:04:41;14.10;99.90
4757;DHT22;2392;52.578;13.426;2023-06-01T07:07:08;14.10;99.90
4757;DHT22;2392;52.578;13.426;2023-06-01T07:09:36;14.10;99.90
4757;DHT22;2392;52.578;13.426;2023-06-01T07:12:04;14.20;99.90
4757;DHT22;2392;52.578;13.426;2023-06-01T07:14:31;14.20;99.90
4757;DHT22;2392;52.578;13.426;2023-06-01T07:16:58;14.20;99.90
4757;DHT22;2392;52.578;13.426;2023-06-01T07:19:25;14.10;99.90
4757;DHT22;2392;52.578;13.426;2023-06-01T07:21:58;14.20;99.90
4757;DHT22;2392;52.578;13.426;2023-06-01T07:24:25;14.20;99.90
4757;DHT22;2392;52.578;13.426;2023-06-01T07:26:54;14.30;99.90
4757;DHT22;2392;52.578;13.426;2023-06-01T07:29:24;14.20;99.90
4757;DHT22;2392;52.578;13.426;2023-06-01T07:31:52;14.20;99.90
4757;DHT22;2392;52.578;13.426;2023-06-01T07:34:19;14.20;99.90
4757;DHT22;2392;52.578;13.426;2023-06-01T07:36:47;14.20;99.90
4757;DHT22;2392;52.578;13.426;2023-06-01T07:39:15;14.20;99.90
4757;DHT22;2392;52.578;13.426;2023-06-01T07:41:44;14.20;99.90
4757;DHT22;2392;52.578;13.426;2023-06-01T07:44:13;14.20;99.90
4757;DHT22;2392;52.578;13.426;2023-06-01T07:46:44;14.30;99.90
4757;DHT22;2392;52.578;13.426;2023-06-01T07:49:11;14.30;99.90
4757;DHT22;2392;52.578;13.426;2023-06-01T07:51:39;14.30;99.90
4757;DHT22;2392;52.578;13.426;2023-06-01T07:54:06;14.50;99.90
4757;DHT22;2392;52.578;13.426;2023-06-01T07:56:33;14.50;99.90
4757;DHT22;2392;52.578;13.426;2023-06-01T07:59:01;14.50;99.90
4757;DHT22;2392;52.578;13.426;2023-06-01T08:01:29;14.50;99.90
4757;DHT22;2392;52.578;13.426;2023-06-01T08:03:56;14.50;99.90
4757;DHT22;2392;52.578;13.426;2023-06-01T08:06:23;14.60;99.90
4757;DHT22;2392;52.578;13.426;2023-06-01T08:08:52;14.60;99.90
4757;DHT22;2392;52.578;13.426;2023-06-01T08:11:19;14.70;99.90
4757;DHT22;2392;52.578;13.426;2023-06-01T08:13:47;14.80;99.90
4757;DHT22;2392;52.578;13.426;2023-06-01T08:16:14;14.90;99.90
4757;DHT22;2392;52.578;13.426;2023-06-01T08:18:43;14.80;99.90
4757;DHT22;2392;52.578;13.426;2023-06-01T08:21:10;14.80;99.90
4757;DHT22;2392;52.578;13.426;2023-06-01T08:23:37;14.90;99.90
4757;DHT22;2392;52.578;13.426;2023-06-01T08:26:04;15.00;99.90
4757;DHT22;2392;52.578;13.426;2023-06-01T08:28:31;15.00;99.90
4757;DHT22;2392;52.578;13.426;2023-06-01T08:30:58;15.00;99.90
4757;DHT22;2392;52.578;13.426;2023-06-01T08:33:25;15.00;99.90
4757;DHT22;2392;52.578;13.426;2023-06-01T08:35:54;15.10;99.90
4757;DHT22;2392;52.578;13.426;2023-06-01T08:38:21;15.10;99.90
4757;DHT22;2392;52.578;13.426;2023-06-01T08:40:48;15.30;99.90
4757;DHT22;2392;52.578;13.426;2023-06-01T08:43:19;15.30;99.90
4757;DHT22;2392;52.578;13.426;2023-06-01T08:45:46;15.30;99.90
4757;DHT22;2392;52.578;13.426;2023-06-01T08:48:16;15.40;99.90
4757;DHT22;2392;52.578;13.426;2023-06-01T08:50:44;15.50;99.90
4757;DHT22;2392;52.578;13.426;2023-06-01T08:53:17;15.60;99.90
4757;DHT22;2392;52.578;13.426;2023-06-01T08:55:46;15.70;99.90
4757;DHT22;2392;52.578;13.426;2023-06-01T08:58:16;15.80;99.90
4757;DHT22;2392;52.578;13.426;2023-06-01T09:00:47;15.90;99.90
4757;DHT22;2392;52.578;13.426;2023-06-01T09:03:14;16.00;99.90
4757;DHT22;2392;52.578;13.426;2023-06-01T09:05:41;16.00;99.90
4757;DHT22;2392;52.578;13.426;2023-06-01T09:08:09;16.10;99.90
4757;DHT22;2392;52.578;13.426;2023-06-01T09:10:37;16.30;99.90
4757;DHT22;2392;52.578;13.426;2023-06-01T09:13:04;16.40;99.90
4757;DHT22;2392;52.578;13.426;2023-06-01T09:15:32;16.50;99.90
4757;DHT22;2392;52.578;13.426;2023-06-01T09:18:06;16.50;99.90
4757;DHT22;2392;52.578;13.426;2023-06-01T09:20:33;16.60;99.90
4757;DHT22;2392;52.578;13.426;2023-06-01T09:23:02;16.60;99.90
4757;DHT22;2392;52.578;13.426;2023-06-01T09:25:31;16.60;99.90
4757;DHT22;2392;52.578;13.426;2023-06-01T09:28:01;16.70;99.90
4757;DHT22;2392;52.578;13.426;2023-06-01T09:30:38;16.90;99.90
4757;DHT22;2392;52.578;13.426;2023-06-01T09:33:13;16.90;99.90
4757;DHT22;2392;52.578;13.426;2023-06-01T09:35:42;16.90;99.90
4757;DHT22;2392;52.578;13.426;2023-06-01T09:38:10;16.80;99.90
4757;DHT22;2392;52.578;13.426;2023-06-01T09:40:38;16.90;99.90
4757;DHT22;2392;52.578;13.426;2023-06-01T09:43:20;16.90;99.90
4757;DHT22;2392;52.578;13.426;2023-06-01T09:46:05;17.10;99.90
4757;DHT22;2392;52.578;13.426;2023-06-01T09:48:33;17.20;99.90
4757;DHT22;2392;52.578;13.426;2023-06-01T09:51:00;17.40;99.90
4757;DHT22;2392;52.578;13.426;2023-06-01T09:53:39;17.50;99.90
4757;DHT22;2392;52.578;13.426;2023-06-01T09:56:06;17.60;99.90
4757;DHT22;2392;52.578;13.426;2023-06-01T09:58:34;17.70;99.90
4757;DHT22;2392;52.578;13.426;2023-06-01T10:01:05;17.60;99.90
4757;DHT22;2392;52.578;13.426;2023-06-01T10:03:33;17.70;99.90
4757;DHT22;2392;52.578;13.426;2023-06-01T10:06:02;17.80;99.90
4757;DHT22;2392;52.578;13.426;2023-06-01T10:08:30;17.90;99.90
4757;DHT22;2392;52.578;13.426;2023-06-01T10:10:58;18.10;99.90
4757;DHT22;2392;52.578;13.426;2023-06-01T10:13:25;18.20;99.90
4757;DHT22;2392;52.578;13.426;2023-06-01T10:15:55;18.30;99.90
4757;DHT22;2392;52.578;13.426;2023-06-01T10:18:22;18.60;99.50
4757;DHT22;2392;52.578;13.426;2023-06-01T10:20:49;19.00;98.60
4757;DHT22;2392;52.578;13.426;2023-06-01T10:23:17;19.50;98.30
4757;DHT22;2392;52.578;13.426;2023-06-01T10:25:48;19.90;97.20
4757;DHT22;2392;52.578;13.426;2023-06-01T10:28:17;20.20;96.70
4757;DHT22;2392;52.578;13.426;2023-06-01T10:30:45;20.50;96.10
4757;DHT22;2392;52.578;13.426;2023-06-01T10:33:13;20.90;95.00
4757;DHT22;2392;52.578;13.426;2023-06-01T10:36:01;21.50;94.80
4757;DHT22;2392;52.578;13.426;2023-06-01T10:38:29;22.40;93.20
4757;DHT22;2392;52.578;13.426;2023-06-01T10:41:24;23.30;92.20
4757;DHT22;2392;52.578;13.426;2023-06-01T10:43:52;24.40;90.70
4757;DHT22;2392;52.578;13.426;2023-06-01T10:46:39;25.20;88.50
4757;DHT22;2392;52.578;13.426;2023-06-01T10:49:08;26.00;85.40
4757;DHT22;2392;52.578;13.426;2023-06-01T10:51:36;26.60;83.00
4757;DHT22;2392;52.578;13.426;2023-06-01T10:54:24;27.10;80.40
4757;DHT22;2392;52.578;13.426;2023-06-01T10:57:22;27.80;78.00
4757;DHT22;2392;52.578;13.426;2023-06-01T11:00:18;29.00;76.20
4757;DHT22;2392;52.578;13.426;2023-06-01T11:02:54;29.90;71.30
4757;DHT22;2392;52.578;13.426;2023-06-01T11:05:42;30.10;69.60
4757;DHT22;2392;52.578;13.426;2023-06-01T11:08:50;30.20;67.80
4757;DHT22;2392;52.578;13.426;2023-06-01T11:11:17;30.20;66.70
4757;DHT22;2392;52.578;13.426;2023-06-01T11:14:11;30.40;66.70
4757;DHT22;2392;52.578;13.426;2023-06-01T11:16:39;30.50;65.40
4757;DHT22;2392;52.578;13.426;2023-06-01T11:19:07;30.80;65.40
4757;DHT22;2392;52.578;13.426;2023-06-01T11:21:41;30.80;63.30
4757;DHT22;2392;52.578;13.426;2023-06-01T11:24:10;29.80;65.20
4757;DHT22;2392;52.578;13.426;2023-06-01T11:26:39;29.30;65.30
4757;DHT22;2392;52.578;13.426;2023-06-01T11:29:09;28.10;66.80
4757;DHT22;2392;52.578;13.426;2023-06-01T11:31:39;27.10;68.60
4757;DHT22;2392;52.578;13.426;2023-06-01T11:34:07;26.50;70.00
4757;DHT22;2392;52.578;13.426;2023-06-01T11:36:41;25.90;71.60
4757;DHT22;2392;52.578;13.426;2023-06-01T11:39:22;25.30;72.40
4757;DHT22;2392;52.578;13.426;2023-06-01T11:41:51;24.10;74.90
4757;DHT22;2392;52.578;13.426;2023-06-01T11:44:18;23.60;76.20
4757;DHT22;2392;52.578;13.426;2023-06-01T11:46:55;23.20;77.40
4757;DHT22;2392;52.578;13.426;2023-06-01T11:49:23;22.70;78.20
4757;DHT22;2392;52.578;13.426;2023-06-01T11:51:52;22.30;78.60
4757;DHT22;2392;52.578;13.426;2023-06-01T11:54:23;22.00;80.80
4757;DHT22;2392;52.578;13.426;2023-06-01T11:56:50;21.90;80.00
4757;DHT22;2392;52.578;13.426;2023-06-01T11:59:18;21.70;80.60
4757;DHT22;2392;52.578;13.426;2023-06-01T12:01:47;21.70;81.50
4757;DHT22;2392;52.578;13.426;2023-06-01T12:04:16;21.60;81.60
4757;DHT22;2392;52.578;13.426;2023-06-01T12:06:43;21.50;81.90
4757;DHT22;2392;52.578;13.426;2023-06-01T12:09:14;21.50;82.50
4757;DHT22;2392;52.578;13.426;2023-06-01T12:11:43;21.60;82.60
4757;DHT22;2392;52.578;13.426;2023-06-01T12:14:10;21.70;81.50
4757;DHT22;2392;52.578;13.426;2023-06-01T12:16:57;21.60;81.80
4757;DHT22;2392;52.578;13.426;2023-06-01T12:19:27;21.70;81.50
4757;DHT22;2392;52.578;13.426;2023-06-01T12:21:56;21.70;81.60
4757;DHT22;2392;52.578;13.426;2023-06-01T12:24:29;21.80;81.70
4757;DHT22;2392;52.578;13.426;2023-06-01T12:26:57;21.80;82.30
4757;DHT22;2392;52.578;13.426;2023-06-01T12:29:38;21.80;82.20
4757;DHT22;2392;52.578;13.426;2023-06-01T12:32:05;21.80;82.20
4757;DHT22;2392;52.578;13.426;2023-06-01T12:34:33;21.90;82.80
4757;DHT22;2392;52.578;13.426;2023-06-01T12:37:14;21.90;82.00
4757;DHT22;2392;52.578;13.426;2023-06-01T12:39:42;21.90;82.50
4757;DHT22;2392;52.578;13.426;2023-06-01T12:42:10;22.00;81.90
4757;DHT22;2392;52.578;13.426;2023-06-01T12:44:37;22.00;82.30
4757;DHT22;2392;52.578;13.426;2023-06-01T12:47:07;21.90;82.70
4757;DHT22;2392;52.578;13.426;2023-06-01T12:49:34;21.90;82.90
4757;DHT22;2392;52.578;13.426;2023-06-01T12:52:04;22.00;83.10
4757;DHT22;2392;52.578;13.426;2023-06-01T12:54:31;22.20;82.70
4757;DHT22;2392;52.578;13.426;2023-06-01T12:57:00;22.20;81.70
4757;DHT22;2392;52.578;13.426;2023-06-01T12:59:27;22.30;82.70
4757;DHT22;2392;52.578;13.426;2023-06-01T13:01:54;22.40;81.80
4757;DHT22;2392;52.578;13.426;2023-06-01T13:04:21;22.50;82.40
4757;DHT22;2392;52.578;13.426;2023-06-01T13:06:49;22.60;82.40
4757;DHT22;2392;52.578;13.426;2023-06-01T13:09:17;22.70;81.60
4757;DHT22;2392;52.578;13.426;2023-06-01T13:11:44;22.70;81.20
4757;DHT22;2392;52.578;13.426;2023-06-01T13:14:12;22.70;80.60
4757;DHT22;2392;52.578;13.426;2023-06-01T13:16:40;22.70;80.80
4757;DHT22;2392;52.578;13.426;2023-06-01T13:19:07;22.60;80.60
4757;DHT22;2392;52.578;13.426;2023-06-01T13:21:34;22.70;80.90
4757;DHT22;2392;52.578;13.426;2023-06-01T13:24:02;22.70;81.10
4757;DHT22;2392;52.578;13.426;2023-06-01T13:26:29;22.70;80.90
4757;DHT22;2392;52.578;13.426;2023-06-01T13:28:56;22.60;80.50
4757;DHT22;2392;52.578;13.426;2023-06-01T13:31:25;22.60;81.20
4757;DHT22;2392;52.578;13.426;2023-06-01T13:33:52;22.60;80.70
4757;DHT22;2392;52.578;13.426;2023-06-01T13:36:19;22.60;80.50
4757;DHT22;2392;52.578;13.426;2023-06-01T13:38:46;22.70;80.10
4757;DHT22;2392;52.578;13.426;2023-06-01T13:41:13;22.70;80.60
4757;DHT22;2392;52.578;13.426;2023-06-01T13:43:40;22.90;80.60
4757;DHT22;2392;52.578;13.426;2023-06-01T13:46:07;23.10;80.10
4757;DHT22;2392;52.578;13.426;2023-06-01T13:48:37;23.20;79.60
4757;DHT22;2392;52.578;13.426;2023-06-01T13:51:04;23.20;79.90
4757;DHT22;2392;52.578;13.426;2023-06-01T13:53:32;23.20;79.80
4757;DHT22;2392;52.578;13.426;2023-06-01T13:55:59;23.20;79.10
4757;DHT22;2392;52.578;13.426;2023-06-01T13:58:27;23.10;79.40
4757;DHT22;2392;52.578;13.426;2023-06-01T14:00:54;23.10;80.00
4757;DHT22;2392;52.578;13.426;2023-06-01T14:03:22;23.10;80.30
4757;DHT22;2392;52.578;13.426;2023-06-01T14:05:50;22.90;80.60
4757;DHT22;2392;52.578;13.426;2023-06-01T14:08:17;22.80;79.80
4757;DHT22;2392;52.578;13.426;2023-06-01T14:10:45;22.80;79.50
4757;DHT22;2392;52.578;13.426;2023-06-01T14:13:12;22.80;79.30
4757;DHT22;2392;52.578;13.426;2023-06-01T14:15:40;22.80;79.20
4757;DHT22;2392;52.578;13.426;2023-06-01T14:18:07;22.80;79.30
4757;DHT22;2392;52.578;13.426;2023-06-01T14:20:34;22.80;79.00
4757;DHT22;2392;52.578;13.426;2023-06-01T14:23:04;22.90;78.20
4757;DHT22;2392;52.578;13.426;2023-06-01T14:25:34;22.90;78.20
4757;DHT22;2392;52.578;13.426;2023-06-01T14:28:01;22.90;77.70
4757;DHT22;2392;52.578;13.426;2023-06-01T14:30:28;22.90;77.80
4757;DHT22;2392;52.578;13.426;2023-06-01T14:32:56;23.00;78.30
4757;DHT22;2392;52.578;13.426;2023-06-01T14:35:23;23.00;77.60
4757;DHT22;2392;52.578;13.426;2023-06-01T14:37:52;22.90;78.00
4757;DHT22;2392;52.578;13.426;2023-06-01T14:40:20;22.90;77.80
4757;DHT22;2392;52.578;13.426;2023-06-01T14:42:47;22.90;78.20
4757;DHT22;2392;52.578;13.426;2023-06-01T14:45:15;22.80;77.60
4757;DHT22;2392;52.578;13.426;2023-06-01T14:47:44;22.80;77.40
4757;DHT22;2392;52.578;13.426;2023-06-01T14:50:11;22.80;77.60
4757;DHT22;2392;52.578;13.426;2023-06-01T14:52:38;22.80;77.10
4757;DHT22;2392;52.578;13.426;2023-06-01T14:55:06;22.80;77.70
4757;DHT22;2392;52.578;13.426;2023-06-01T14:57:35;22.90;77.40
4757;DHT22;2392;52.578;13.426;2023-06-01T15:00:02;22.90;77.50
4757;DHT22;2392;52.578;13.426;2023-06-01T15:02:30;22.90;77.10
4757;DHT22;2392;52.578;13.426;2023-06-01T15:04:57;22.90;77.30
4757;DHT22;2392;52.578;13.426;2023-06-01T15:07:24;22.90;77.20
4757;DHT22;2392;52.578;13.426;2023-06-01T15:09:51;22.90;76.80
4757;DHT22;2392;52.578;13.426;2023-06-01T15:12:19;22.90;76.80
4757;DHT22;2392;52.578;13.426;2023-06-01T15:14:47;22.90;77.10
4757;DHT22;2392;52.578;13.426;2023-06-01T15:17:15;22.80;77.80
4757;DHT22;2392;52.578;13.426;2023-06-01T15:19:42;22.90;77.70
4757;DHT22;2392;52.578;13.426;2023-06-01T15:22:09;22.90;78.20
4757;DHT22;2392;52.578;13.426;2023-06-01T15:24:36;22.90;77.20
4757;DHT22;2392;52.578;13.426;2023-06-01T15:27:05;22.90;76.60
4757;DHT22;2392;52.578;13.426;2023-06-01T15:29:32;22.90;76.70
4757;DHT22;2392;52.578;13.426;2023-06-01T15:32:01;22.90;76.10
4757;DHT22;2392;52.578;13.426;2023-06-01T15:34:28;23.00;75.40
4757;DHT22;2392;52.578;13.426;2023-06-01T15:36:54;23.00;75.60
4757;DHT22;2392;52.578;13.426;2023-06-01T15:39:21;23.10;76.00
4757;DHT22;2392;52.578;13.426;2023-06-01T15:41:49;23.10;76.20
4757;DHT22;2392;52.578;13.426;2023-06-01T15:44:15;23.10;76.00
4757;DHT22;2392;52.578;13.426;2023-06-01T15:46:44;23.20;76.20
4757;DHT22;2392;52.578;13.426;2023-06-01T15:49:13;23.20;75.60
4757;DHT22;2392;52.578;13.426;2023-06-01T15:51:41;23.10;75.80
4757;DHT22;2392;52.578;13.426;2023-06-01T15:54:08;23.10;75.80
4757;DHT22;2392;52.578;13.426;2023-06-01T15:56:35;23.10;75.40
4757;DHT22;2392;52.578;13.426;2023-06-01T15:59:02;22.90;75.00